Time;durP1;ratioP1;P1;durP2;ratioP2;P2;SDS_P1;SDS_P2;PMS_P1;PMS_P2;Temp;Humidity;BMP_temperature;BMP_pressure;BME280_temperature;BME280_humidity;BME280_pressure;Samples;Min_cycle;Max_cycle;Signal;HPM_P1;HPM_P2
2023/11/30 00:26:28;;;;;;;10.38;7.15;;;;;;;0.11;100.00;99631.94;6205972;23;20359;-80
2023/11/30 00:28:55;;;;;;;14.10;7.55;;;;;;;0.04;100.00;99624.09;6151137;23;20021;-79
2023/11/30 00:31:22;;;;;;;11.77;7.85;;;;;;;-0.06;100.00;99635.94;6124077;23;20044;-78
2023/11/30 00:33:48;;;;;;;9.95;7.15;;;;;;;-0.08;100.00;99641.06;6149833;23;20117;-78
2023/11/30 00:36:18;;;;;;;11.68;7.10;;;;;;;-0.02;100.00;99637.72;6149905;23;20116;-80
2023/11/30 00:38:47;;;;;;;11.40;7.78;;;;;;;-0.02;100.00;99643.72;6123679;23;20598;-79
2023/11/30 00:41:17;;;;;;;12.77;7.50;;;;;;;-0.02;100.00;99641.16;6150323;23;20021;-77
2023/11/30 00:43:44;;;;;;;11.32;7.82;;;;;;;0.01;100.00;99640.34;6102076;23;20438;-77
2023/11/30 00:46:14;;;;;;;9.80;6.93;;;;;;;0.02;100.00;99639.50;6148917;23;20020;-79
2023/11/30 00:48:41;;;;;;;14.68;8.27;;;;;;;0.03;100.00;99640.34;6174724;23;20017;-78
2023/11/30 00:51:12;;;;;;;13.02;7.97;;;;;;;0.05;100.00;99633.53;6148949;23;20017;-81
2023/11/30 00:53:40;;;;;;;12.52;7.93;;;;;;;-0.02;100.00;99637.72;6149139;23;20048;-78
2023/11/30 00:56:11;;;;;;;11.88;7.88;;;;;;;-0.02;100.00;99641.16;6144398;23;20084;-79
2023/11/30 00:58:38;;;;;;;11.95;7.28;;;;;;;0.01;100.00;99642.91;6148378;23;20450;-78
2023/11/30 01:01:05;;;;;;;13.10;7.05;;;;;;;0.06;100.00;99640.44;6149581;23;20075;-82
2023/11/30 01:03:32;;;;;;;21.67;8.13;;;;;;;0.09;100.00;99640.47;6125260;23;20052;-79
2023/11/30 01:05:59;;;;;;;8.27;6.70;;;;;;;0.08;100.00;99643.88;6148153;23;20013;-78
2023/11/30 01:08:25;;;;;;;12.05;7.65;;;;;;;0.04;100.00;99642.09;6147876;23;20023;-79
2023/11/30 01:10:50;;;;;;;11.88;6.80;;;;;;;-0.01;100.00;99642.88;6149141;23;20024;-79
2023/11/30 01:13:17;;;;;;;11.38;7.35;;;;;;;-0.05;100.00;99640.25;6153245;23;20013;-81
2023/11/30 01:15:44;;;;;;;11.15;7.05;;;;;;;-0.08;100.00;99640.19;6143878;23;20021;-77
2023/11/30 01:18:10;;;;;;;13.05;7.55;;;;;;;-0.14;100.00;99637.47;6104112;23;20036;-79
2023/11/30 01:20:39;;;;;;;10.57;7.45;;;;;;;-0.29;100.00;99648.38;6102678;23;20029;-78
2023/11/30 01:23:06;;;;;;;15.65;8.32;;;;;;;-0.39;100.00;99649.88;6126638;23;20097;-80
2023/11/30 01:25:34;;;;;;;11.52;7.22;;;;;;;-0.49;100.00;99648.84;6122861;23;20029;-80
2023/11/30 01:28:00;;;;;;;14.13;8.10;;;;;;;-0.53;100.00;99654.78;6124814;23;20061;-80
2023/11/30 01:30:29;;;;;;;14.15;8.27;;;;;;;-0.61;100.00;99656.31;6122090;23;20060;-79
2023/11/30 01:32:56;;;;;;;12.27;7.63;;;;;;;-0.68;100.00;99655.31;6098767;23;20022;-78
2023/11/30 01:35:25;;;;;;;12.40;7.55;;;;;;;-0.75;100.00;99662.03;6122560;23;20014;-78
2023/11/30 01:37:51;;;;;;;13.05;7.32;;;;;;;-0.78;100.00;99655.97;6123437;23;20084;-80
2023/11/30 01:40:21;;;;;;;17.00;9.18;;;;;;;-0.82;100.00;99656.75;6097562;23;20031;-82
2023/11/30 01:42:51;;;;;;;11.18;7.60;;;;;;;-0.88;100.00;99662.63;6097401;23;20064;-78
2023/11/30 01:45:21;;;;;;;14.00;8.32;;;;;;;-0.87;100.00;99651.53;6122486;23;20016;-78
2023/11/30 01:47:51;;;;;;;13.88;8.15;;;;;;;-0.89;100.00;99650.63;6122779;23;20018;-81
2023/11/30 01:50:20;;;;;;;15.63;7.88;;;;;;;-0.92;100.00;99648.84;6122378;23;20025;-77
2023/11/30 01:52:47;;;;;;;13.15;8.90;;;;;;;-0.98;100.00;99647.84;6122468;23;20021;-79
2023/11/30 01:55:13;;;;;;;11.48;7.75;;;;;;;-1.01;100.00;99641.81;6122169;23;20022;-79
2023/11/30 01:57:42;;;;;;;13.65;8.30;;;;;;;-1.04;100.00;99641.75;6122899;23;20026;-80
2023/11/30 02:00:10;;;;;;;12.70;8.38;;;;;;;-1.10;100.00;99635.63;6122552;23;20014;-79
2023/11/30 02:02:37;;;;;;;12.63;8.32;;;;;;;-1.15;100.00;99642.34;6121174;23;20025;-78
2023/11/30 02:05:04;;;;;;;14.98;8.57;;;;;;;-1.17;100.00;99637.19;6128904;23;20018;-79
2023/11/30 02:07:30;;;;;;;13.60;7.85;;;;;;;-1.19;100.00;99644.84;6137355;23;20021;-79
2023/11/30 02:09:57;;;;;;;15.45;8.45;;;;;;;-1.20;100.00;99642.22;6115209;23;20088;-80
2023/11/30 02:12:23;;;;;;;13.73;8.48;;;;;;;-1.23;100.00;99640.47;6142982;23;20076;-80
2023/11/30 02:14:50;;;;;;;15.18;8.43;;;;;;;-1.24;100.00;99643.00;6135687;23;20026;-79
2023/11/30 02:17:17;;;;;;;14.40;8.32;;;;;;;-1.29;100.00;99640.34;6102737;23;20033;-78
2023/11/30 02:19:43;;;;;;;14.77;8.65;;;;;;;-1.25;100.00;99642.16;6123732;23;20018;-78
2023/11/30 02:22:10;;;;;;;13.45;9.45;;;;;;;-1.21;100.00;99637.94;6125485;23;20088;-78
2023/11/30 02:24:38;;;;;;;19.65;9.07;;;;;;;-1.25;100.00;99636.13;6123771;23;20013;-78
2023/11/30 02:27:05;;;;;;;15.70;8.77;;;;;;;-1.26;100.00;99630.13;6123064;23;20044;-78
2023/11/30 02:29:31;;;;;;;13.88;7.85;;;;;;;-1.29;100.00;99630.06;6122021;23;20082;-78
2023/11/30 02:31:58;;;;;;;15.98;8.35;;;;;;;-1.34;100.00;99629.97;6123894;23;20144;-80
2023/11/30 02:34:24;;;;;;;12.57;8.02;;;;;;;-1.38;100.00;99628.16;6122386;23;20024;-79
2023/11/30 02:36:55;;;;;;;13.48;8.02;;;;;;;-1.46;100.00;99622.00;6121331;23;20029;-81
2023/11/30 02:39:21;;;;;;;15.57;7.93;;;;;;;-1.49;100.00;99624.47;6122466;23;20049;-80
2023/11/30 02:41:51;;;;;;;13.77;7.38;;;;;;;-1.51;100.00;99623.59;6122755;23;20069;-80
2023/11/30 02:44:18;;;;;;;14.55;8.35;;;;;;;-1.56;100.00;99618.34;6146554;23;20049;-79
2023/11/30 02:46:46;;;;;;;14.50;7.68;;;;;;;-1.59;100.00;99618.28;6121777;23;20447;-78
2023/11/30 02:49:12;;;;;;;13.70;7.63;;;;;;;-1.64;100.00;99618.97;6120567;23;20025;-80
2023/11/30 02:51:39;;;;;;;12.52;7.55;;;;;;;-1.69;100.00;99629.16;6119901;23;20025;-78
2023/11/30 02:54:06;;;;;;;14.05;8.57;;;;;;;-1.71;100.00;99616.28;6120858;23;20048;-79
2023/11/30 02:56:40;;;;;;;17.45;9.30;;;;;;;-1.63;100.00;99615.59;6120265;23;20103;-78
2023/11/30 02:59:08;;;;;;;16.65;7.10;;;;;;;-1.70;100.00;99609.44;6121351;23;20459;-78
2023/11/30 03:01:46;;;;;;;18.90;8.25;;;;;;;-1.70;100.00;99617.13;6097266;23;20021;-79
2023/11/30 03:04:13;;;;;;;12.45;7.60;;;;;;;-1.75;100.00;99614.44;6122478;23;20018;-80
2023/11/30 03:06:48;;;;;;;13.20;6.53;;;;;;;-1.79;100.00;99617.78;6120514;23;20036;-79
2023/11/30 03:09:15;;;;;;;12.10;7.38;;;;;;;-1.83;100.00;99613.41;6115332;23;20029;-80
2023/11/30 03:11:43;;;;;;;11.10;6.00;;;;;;;-1.85;100.00;99618.50;6120201;23;20041;-78
2023/11/30 03:14:10;;;;;;;13.65;7.63;;;;;;;-1.86;100.00;99605.66;6121702;23;20014;-79
2023/11/30 03:16:36;;;;;;;10.75;6.20;;;;;;;-1.89;100.00;99601.31;6120338;23;20429;-79
2023/11/30 03:19:03;;;;;;;13.68;7.32;;;;;;;-1.87;100.00;99606.47;6121158;23;20096;-79
2023/11/30 03:21:31;;;;;;;9.50;5.90;;;;;;;-1.88;100.00;99597.03;6124479;23;20021;-78
2023/11/30 03:23:57;;;;;;;11.50;6.22;;;;;;;-1.87;100.00;99602.19;6122823;23;20045;-77
2023/11/30 03:26:24;;;;;;;13.15;6.70;;;;;;;-1.86;100.00;99596.25;6093078;23;20120;-78
2023/11/30 03:28:51;;;;;;;11.18;6.28;;;;;;;-1.86;100.00;99596.25;6092108;23;20762;-80
2023/11/30 03:31:20;;;;;;;11.77;6.72;;;;;;;-1.85;100.00;99599.69;6092109;23;20026;-78
2023/11/30 03:33:49;;;;;;;11.55;6.28;;;;;;;-1.90;100.00;99591.88;6091749;23;20021;-78
2023/11/30 03:36:15;;;;;;;13.93;7.18;;;;;;;-1.89;100.00;99588.50;6116354;23;20017;-78
2023/11/30 03:38:44;;;;;;;11.30;7.80;;;;;;;-1.89;100.00;99592.72;6117003;23;20306;-78
2023/11/30 03:41:11;;;;;;;11.95;7.72;;;;;;;-1.92;100.00;99584.97;6116437;23;20029;-80
2023/11/30 03:43:38;;;;;;;11.13;6.60;;;;;;;-1.91;100.00;99585.00;6091273;23;20096;-78
2023/11/30 03:46:06;;;;;;;11.88;6.82;;;;;;;-1.90;100.00;99586.75;6092987;23;20025;-79
2023/11/30 03:48:33;;;;;;;10.63;7.38;;;;;;;-1.88;100.00;99591.91;6090417;23;20080;-78
2023/11/30 03:50:59;;;;;;;14.05;7.00;;;;;;;-1.92;100.00;99585.81;6116523;23;20026;-79
2023/11/30 03:53:26;;;;;;;13.07;7.35;;;;;;;-1.93;100.00;99579.00;6113497;23;20018;-80
2023/11/30 03:56:03;;;;;;;12.68;6.93;;;;;;;-1.93;100.00;99571.28;6115025;23;20152;-78
2023/11/30 03:58:32;;;;;;;15.98;7.80;;;;;;;-1.96;100.00;99578.03;6114065;23;20017;-79
2023/11/30 04:00:58;;;;;;;12.02;7.57;;;;;;;-1.96;100.00;99570.34;6090077;23;20457;-80
2023/11/30 04:03:25;;;;;;;12.65;6.93;;;;;;;-1.97;100.00;99581.44;6115588;23;20049;-79
2023/11/30 04:05:51;;;;;;;11.20;6.85;;;;;;;-1.99;100.00;99578.84;6115323;23;20027;-78
2023/11/30 04:08:18;;;;;;;12.40;6.53;;;;;;;-1.98;100.00;99578.00;6090594;23;20117;-80
2023/11/30 04:10:45;;;;;;;14.25;7.47;;;;;;;-1.95;100.00;99570.38;6085867;23;20445;-78
2023/11/30 04:13:12;;;;;;;13.00;7.63;;;;;;;-1.95;100.00;99567.81;6091195;23;20033;-78
2023/11/30 04:15:39;;;;;;;12.82;6.47;;;;;;;-1.96;100.00;99570.34;6089296;23;20014;-80
2023/11/30 04:18:05;;;;;;;10.82;6.32;;;;;;;-1.96;100.00;99575.47;6115424;23;20296;-81
2023/11/30 04:20:34;;;;;;;12.32;7.53;;;;;;;-1.98;100.00;99572.00;6113745;23;20037;-77
2023/11/30 04:23:03;;;;;;;11.82;6.53;;;;;;;-2.00;100.00;99574.53;6092239;23;20021;-78
2023/11/30 04:25:29;;;;;;;11.27;7.15;;;;;;;-2.02;100.00;99568.47;6091528;23;20014;-78
2023/11/30 04:27:57;;;;;;;13.88;6.85;;;;;;;-2.01;100.00;99567.66;6142228;23;20021;-80
2023/11/30 04:30:24;;;;;;;14.38;7.53;;;;;;;-2.03;100.00;99571.91;6121004;23;20018;-78
2023/11/30 04:32:51;;;;;;;11.88;7.45;;;;;;;-2.05;100.00;99576.13;6121927;23;20032;-80
2023/11/30 04:35:20;;;;;;;11.98;7.50;;;;;;;-2.05;100.00;99570.97;6122221;23;20043;-78
2023/11/30 04:37:46;;;;;;;12.60;6.65;;;;;;;-2.04;100.00;99573.56;6120304;23;20403;-80
2023/11/30 04:40:13;;;;;;;13.75;7.18;;;;;;;-2.05;100.00;99571.84;6095552;23;20037;-83
2023/11/30 04:42:40;;;;;;;14.02;7.28;;;;;;;-2.05;100.00;99573.53;6119828;23;20434;-79
2023/11/30 04:45:07;;;;;;;17.02;8.30;;;;;;;-2.08;100.00;99569.22;6144403;23;20018;-78
2023/11/30 04:47:34;;;;;;;14.57;8.73;;;;;;;-2.05;100.00;99565.84;6119727;23;20044;-79
2023/11/30 04:50:01;;;;;;;13.10;7.30;;;;;;;-2.08;100.00;99566.66;6096389;23;20018;-81
2023/11/30 04:52:27;;;;;;;12.95;7.53;;;;;;;-2.07;100.00;99575.22;6119988;23;20029;-79
2023/11/30 04:54:54;;;;;;;15.63;8.10;;;;;;;-2.04;100.00;99573.56;6119848;23;20084;-78
2023/11/30 04:57:21;;;;;;;16.63;7.88;;;;;;;-2.03;100.00;99572.75;6118979;23;20112;-79
2023/11/30 04:59:47;;;;;;;15.68;7.93;;;;;;;-2.03;100.00;99582.16;6144024;23;20021;-79
2023/11/30 05:02:14;;;;;;;14.52;7.85;;;;;;;-2.06;100.00;99584.63;6121095;23;20017;-80
2023/11/30 05:04:40;;;;;;;13.57;7.63;;;;;;;-2.08;100.00;99584.59;6120408;23;20329;-78
2023/11/30 06:04:30;;;;;;;13.57;7.82;;;;;;;-2.14;100.00;99611.78;6194701;23;20104;-85
2023/11/30 06:06:56;;;;;;;17.73;9.65;;;;;;;-2.20;100.00;99613.34;6156460;23;20473;-84
2023/11/30 06:09:23;;;;;;;17.08;9.15;;;;;;;-2.22;100.00;99609.88;6155590;23;20075;-84
2023/11/30 06:11:51;;;;;;;20.25;9.95;;;;;;;-2.25;100.00;99612.38;6153807;23;20079;-83
2023/11/30 06:14:19;;;;;;;14.23;8.88;;;;;;;-2.25;100.00;99616.66;6155085;23;20025;-85
2023/11/30 06:16:45;;;;;;;22.45;9.68;;;;;;;-2.29;100.00;99623.38;6126476;23;20021;-84
2023/11/30 06:19:12;;;;;;;14.73;9.43;;;;;;;-2.27;100.00;99620.84;6131001;23;20024;-85
2023/11/30 06:21:42;;;;;;;21.27;9.45;;;;;;;-2.31;100.00;99626.72;6126837;23;20056;-84
2023/11/30 06:24:08;;;;;;;19.38;8.90;;;;;;;-2.29;100.00;99623.38;6147864;23;20021;-85
2023/11/30 06:26:35;;;;;;;21.23;10.95;;;;;;;-2.28;100.00;99637.94;6126089;23;20021;-84
2023/11/30 06:29:01;;;;;;;37.20;10.90;;;;;;;-2.25;100.00;99642.28;6129714;23;20049;-83
2023/11/30 06:31:28;;;;;;;17.02;9.05;;;;;;;-2.25;100.00;99647.41;6148627;23;20791;-84
2023/11/30 06:33:55;;;;;;;16.42;8.45;;;;;;;-2.20;100.00;99648.41;6124623;23;20048;-84
2023/11/30 06:36:21;;;;;;;20.33;9.63;;;;;;;-2.12;100.00;99643.47;6124155;23;20021;-85
2023/11/30 06:38:48;;;;;;;16.10;8.70;;;;;;;-2.08;100.00;99646.13;6100544;23;20120;-84
2023/11/30 06:41:15;;;;;;;18.70;8.98;;;;;;;-2.02;100.00;99646.31;6102592;23;20025;-84
2023/11/30 06:43:41;;;;;;;16.73;8.52;;;;;;;-1.97;100.00;99642.97;6101346;23;20034;-83
2023/11/30 06:46:08;;;;;;;27.77;10.63;;;;;;;-1.96;100.00;99655.84;6100657;23;20022;-84
2023/11/30 06:48:35;;;;;;;19.10;9.88;;;;;;;-1.93;100.00;99652.50;6127586;23;20057;-83
2023/11/30 06:51:01;;;;;;;19.27;9.55;;;;;;;-1.89;100.00;99659.44;6126080;23;20128;-85
2023/11/30 06:53:28;;;;;;;20.95;10.30;;;;;;;-1.90;100.00;99652.59;6126917;23;20025;-85
2023/11/30 06:55:55;;;;;;;15.35;8.82;;;;;;;-1.92;100.00;99649.09;6125913;23;20025;-86
2023/11/30 06:58:24;;;;;;;16.70;8.98;;;;;;;-1.91;100.00;99659.41;6127857;23;20021;-86
2023/11/30 07:00:51;;;;;;;16.77;8.20;;;;;;;-1.91;100.00;99653.41;6126003;23;20538;-85
2023/11/30 07:03:18;;;;;;;16.58;9.68;;;;;;;-1.96;100.00;99649.84;6127772;23;20018;-85
2023/11/30 07:05:45;;;;;;;16.00;8.82;;;;;;;-1.99;100.00;99645.50;6102381;23;20029;-85
2023/11/30 07:08:13;;;;;;;17.33;9.32;;;;;;;-1.94;100.00;99650.75;6126855;23;20084;-85
2023/11/30 07:10:40;;;;;;;16.42;10.35;;;;;;;-1.90;100.00;99648.31;6102639;23;20481;-84
2023/11/30 07:13:07;;;;;;;23.75;10.98;;;;;;;-1.83;100.00;99641.63;6102401;23;20089;-83
2023/11/30 07:15:34;;;;;;;29.58;10.50;;;;;;;-1.81;100.00;99641.66;6126882;23;20034;-84
2023/11/30 07:18:01;;;;;;;19.95;11.15;;;;;;;-1.81;100.00;99649.34;6105848;23;20084;-85
2023/11/30 07:20:30;;;;;;;20.00;10.50;;;;;;;-1.74;100.00;99646.13;6129365;23;20574;-85
2023/11/30 07:23:01;;;;;;;17.45;10.15;;;;;;;-1.77;100.00;99643.47;6079319;23;20025;-85
2023/11/30 07:25:27;;;;;;;18.17;10.20;;;;;;;-1.71;100.00;99646.19;6103740;23;20128;-84
2023/11/30 07:27:54;;;;;;;22.23;11.30;;;;;;;-1.71;100.00;99639.38;6103696;23;20024;-88
2023/11/30 07:30:23;;;;;;;16.95;10.40;;;;;;;-1.64;100.00;99642.97;6106652;23;20025;-85
2023/11/30 07:32:50;;;;;;;22.15;11.75;;;;;;;-1.63;100.00;99642.13;6128996;23;20108;-85
2023/11/30 07:35:17;;;;;;;17.35;10.05;;;;;;;-1.58;100.00;99643.09;6133684;23;20128;-85
2023/11/30 07:37:43;;;;;;;24.00;11.00;;;;;;;-1.51;100.00;99647.53;6082534;23;20052;-86
2023/11/30 07:40:18;;;;;;;22.80;11.80;;;;;;;-1.49;100.00;99650.13;6105403;23;20088;-83
2023/11/30 07:42:45;;;;;;;18.67;10.85;;;;;;;-1.47;100.00;99647.59;6106406;23;20467;-85
2023/11/30 07:45:13;;;;;;;20.63;11.32;;;;;;;-1.43;100.00;99652.00;6105643;23;20032;-84
2023/11/30 07:47:40;;;;;;;19.02;10.88;;;;;;;-1.41;100.00;99647.75;6132280;23;20092;-87
2023/11/30 07:50:07;;;;;;;22.40;11.73;;;;;;;-1.41;100.00;99647.75;6133699;23;20017;-85
2023/11/30 07:52:37;;;;;;;19.30;10.45;;;;;;;-1.33;100.00;99648.78;6104727;23;20025;-85
2023/11/30 07:55:05;;;;;;;30.08;12.23;;;;;;;-1.26;100.00;99647.25;6128973;23;20025;-85
2023/11/30 07:57:32;;;;;;;27.65;13.30;;;;;;;-1.24;100.00;99649.03;6103714;23;20021;-86
2023/11/30 08:00:03;;;;;;;21.67;12.48;;;;;;;-1.21;100.00;99643.94;6104599;23;20017;-85
2023/11/30 08:02:30;;;;;;;22.83;12.38;;;;;;;-1.21;100.00;99649.09;6105919;23;20343;-84
2023/11/30 08:04:59;;;;;;;19.83;10.95;;;;;;;-1.24;100.00;99649.03;6127226;23;20065;-83
2023/11/30 08:07:25;;;;;;;21.13;10.95;;;;;;;-1.24;100.00;99653.28;6128516;23;20040;-85
2023/11/30 08:09:53;;;;;;;24.40;13.15;;;;;;;-1.14;100.00;99654.38;6127336;23;20112;-85
2023/11/30 08:12:19;;;;;;;20.67;12.95;;;;;;;-1.06;100.00;99652.81;6129547;23;20025;-85
2023/11/30 08:14:46;;;;;;;21.45;12.27;;;;;;;-1.02;100.00;99640.09;6104047;23;20021;-86
2023/11/30 08:17:13;;;;;;;23.73;12.48;;;;;;;-0.98;100.00;99648.72;6152866;23;20526;-86
2023/11/30 08:19:40;;;;;;;16.95;12.00;;;;;;;-0.96;100.00;99644.47;6104151;23;20022;-84
2023/11/30 08:22:07;;;;;;;20.35;11.55;;;;;;;-0.92;100.00;99642.84;6128969;23;20025;-85
2023/11/30 08:24:34;;;;;;;25.05;12.05;;;;;;;-0.96;100.00;99651.34;6128992;23;20028;-84
2023/11/30 08:27:02;;;;;;;21.38;12.50;;;;;;;-0.86;100.00;99648.09;6127491;23;20029;-85
2023/11/30 08:29:29;;;;;;;22.00;11.65;;;;;;;-0.77;100.00;99647.44;6129138;23;20399;-86
2023/11/30 08:31:59;;;;;;;24.38;11.30;;;;;;;-0.77;100.00;99639.72;6130779;23;20028;-87
2023/11/30 08:34:26;;;;;;;23.17;11.88;;;;;;;-0.83;100.00;99643.03;6133537;23;20025;-85
2023/11/30 08:36:53;;;;;;;25.27;14.02;;;;;;;-0.76;100.00;99647.47;6105360;23;20760;-84
2023/11/30 08:39:23;;;;;;;22.20;11.77;;;;;;;-0.65;100.00;99649.38;6129613;23;20018;-85
2023/11/30 08:41:51;;;;;;;24.33;12.70;;;;;;;-0.52;100.00;99646.25;6104910;23;20053;-86
2023/11/30 08:44:20;;;;;;;23.15;12.73;;;;;;;-0.52;100.00;99644.53;6156987;23;20084;-86
2023/11/30 08:46:48;;;;;;;26.42;13.63;;;;;;;-0.56;100.00;99641.84;6108527;23;20025;-85
2023/11/30 08:49:14;;;;;;;24.50;13.10;;;;;;;-0.51;100.00;99645.38;6131500;23;20021;-85
2023/11/30 08:51:42;;;;;;;23.58;13.15;;;;;;;-0.42;100.00;99642.13;6129794;23;20056;-85
2023/11/30 08:54:09;;;;;;;22.17;13.38;;;;;;;-0.43;100.00;99645.53;6132390;23;20021;-84
2023/11/30 08:56:35;;;;;;;21.75;12.32;;;;;;;-0.34;100.00;99632.84;6104843;23;20025;-84
2023/11/30 08:59:03;;;;;;;23.92;12.95;;;;;;;-0.25;100.00;99633.03;6127910;23;20533;-84
2023/11/30 09:01:29;;;;;;;25.65;14.40;;;;;;;-0.21;100.00;99626.22;6129188;23;20021;-84
2023/11/30 09:04:03;;;;;;;25.00;12.80;;;;;;;-0.14;100.00;99625.50;6126891;23;20017;-86
2023/11/30 09:06:30;;;;;;;24.70;12.95;;;;;;;-0.15;100.00;99630.63;6100208;23;20029;-85
2023/11/30 09:09:00;;;;;;;25.45;14.73;;;;;;;-0.07;100.00;99635.06;6125113;23;20482;-86
2023/11/30 09:11:29;;;;;;;20.45;11.70;;;;;;;0.03;100.00;99622.34;6101693;23;20021;-84
2023/11/30 09:13:57;;;;;;;26.77;14.88;;;;;;;0.27;100.00;99627.91;6125775;23;20077;-82
2023/11/30 09:16:25;;;;;;;22.25;11.70;;;;;;;0.42;100.00;99621.28;6100513;23;20053;-84
2023/11/30 09:18:55;;;;;;;28.02;14.35;;;;;;;0.39;100.00;99616.06;6125838;23;20021;-84
2023/11/30 09:21:21;;;;;;;23.92;12.77;;;;;;;0.42;100.00;99616.16;6128089;23;20426;-85
2023/11/30 09:23:48;;;;;;;30.92;13.57;;;;;;;0.35;100.00;99607.44;6103492;23;20053;-84
2023/11/30 09:26:15;;;;;;;21.83;12.70;;;;;;;0.34;100.00;99600.56;6101648;23;20084;-83
2023/11/30 09:28:43;;;;;;;22.25;12.57;;;;;;;0.38;100.00;99604.91;6101164;23;20085;-84
2023/11/30 09:31:10;;;;;;;22.83;12.98;;;;;;;0.34;100.00;99598.00;6128419;23;20028;-85
2023/11/30 09:33:36;;;;;;;21.80;12.88;;;;;;;0.29;100.00;99607.34;6127471;23;20021;-84
2023/11/30 09:36:03;;;;;;;25.80;12.63;;;;;;;0.28;100.00;99608.19;6127053;23;20032;-83
2023/11/30 09:38:31;;;;;;;22.83;12.70;;;;;;;0.28;100.00;99603.91;6102855;23;20037;-86
2023/11/30 09:41:02;;;;;;;23.70;12.90;;;;;;;0.31;100.00;99596.25;6104702;23;20090;-86
2023/11/30 09:43:31;;;;;;;20.85;12.75;;;;;;;0.40;100.00;99608.38;6104349;23;20044;-86
2023/11/30 09:45:59;;;;;;;21.60;12.05;;;;;;;0.45;100.00;99599.00;6126541;23;20021;-86
2023/11/30 09:48:26;;;;;;;21.95;11.93;;;;;;;0.49;100.00;99592.19;6103663;23;20021;-85
2023/11/30 09:50:53;;;;;;;18.90;11.65;;;;;;;0.50;100.00;99593.94;6132899;23;20028;-86
2023/11/30 09:53:21;;;;;;;19.73;11.95;;;;;;;0.63;100.00;99601.00;6129351;23;20029;-86
2023/11/30 09:55:50;;;;;;;21.27;11.75;;;;;;;0.67;100.00;99595.91;6126753;23;20022;-84
2023/11/30 09:58:17;;;;;;;23.52;12.30;;;;;;;0.65;100.00;99595.84;6102202;23;20021;-85
2023/11/30 10:00:44;;;;;;;21.77;12.45;;;;;;;0.55;100.00;99596.56;6102502;23;20029;-83
2023/11/30 10:03:12;;;;;;;25.17;13.50;;;;;;;0.55;100.00;99599.13;6103018;23;20022;-84
2023/11/30 10:05:38;;;;;;;21.88;12.60;;;;;;;0.55;100.00;99596.56;6102871;23;20522;-84
2023/11/30 10:08:06;;;;;;;20.70;12.43;;;;;;;0.54;100.00;99589.72;6126312;23;20029;-83
2023/11/30 10:10:32;;;;;;;21.70;11.85;;;;;;;0.61;100.00;99592.41;6103681;23;20352;-85
2023/11/30 10:12:59;;;;;;;20.15;12.30;;;;;;;0.57;100.00;99589.75;6103730;23;20053;-86
2023/11/30 10:15:26;;;;;;;18.85;11.73;;;;;;;0.44;100.00;99583.53;6127296;23;20031;-86
2023/11/30 10:17:53;;;;;;;26.02;13.18;;;;;;;0.40;100.00;99580.03;6102094;23;20080;-85
2023/11/30 10:20:20;;;;;;;21.27;12.82;;;;;;;0.29;100.00;99584.19;6126809;23;20061;-86
2023/11/30 10:22:46;;;;;;;17.23;11.30;;;;;;;0.23;100.00;99579.78;6126792;23;20021;-83
2023/11/30 10:25:14;;;;;;;21.73;13.43;;;;;;;0.28;100.00;99578.16;6129022;23;20101;-84
2023/11/30 10:27:42;;;;;;;21.05;12.10;;;;;;;0.41;100.00;99580.94;6107416;23;20045;-84
2023/11/30 10:30:11;;;;;;;24.27;12.40;;;;;;;0.56;100.00;99581.16;6101452;23;20017;-83
2023/11/30 10:32:43;;;;;;;23.58;13.02;;;;;;;0.63;100.00;99575.22;6126891;23;20028;-85
2023/11/30 10:35:15;;;;;;;28.23;14.38;;;;;;;0.82;100.00;99570.31;6101442;23;20025;-84
2023/11/30 10:37:46;;;;;;;26.58;13.57;;;;;;;0.81;100.00;99564.31;6124823;23;20058;-86
2023/11/30 10:40:14;;;;;;;24.60;13.00;;;;;;;0.70;100.00;99565.03;6102627;23;20025;-86
2023/11/30 10:42:42;;;;;;;28.25;15.82;;;;;;;0.71;100.00;99557.31;6100526;23;20026;-82
2023/11/30 10:45:11;;;;;;;23.55;13.88;;;;;;;0.71;100.00;99565.03;6124325;23;20403;-84
2023/11/30 10:47:42;;;;;;;33.08;12.35;;;;;;;0.96;100.00;99558.47;6125913;23;20021;-84
2023/11/30 10:50:11;;;;;;;23.88;12.45;;;;;;;1.09;100.00;99556.91;6101464;23;20053;-86
2023/11/30 10:52:44;;;;;;;22.08;12.13;;;;;;;0.94;100.00;99559.31;6126237;23;20053;-84
2023/11/30 10:55:14;;;;;;;24.63;12.35;;;;;;;1.02;100.00;99549.97;6125876;23;20021;-86
2023/11/30 10:57:43;;;;;;;23.67;13.80;;;;;;;0.98;100.00;99549.06;6150248;23;20041;-83
2023/11/30 11:00:22;;;;;;;23.15;12.20;;;;;;;0.91;100.00;99548.97;6128637;23;20406;-86
2023/11/30 11:02:49;;;;;;;22.17;11.65;;;;;;;1.01;100.00;99548.25;6132943;23;20027;-84
2023/11/30 11:05:20;;;;;;;22.10;12.57;;;;;;;1.09;100.00;99546.59;6095553;23;20052;-85
2023/11/30 11:07:53;;;;;;;25.70;13.57;;;;;;;1.27;100.00;99543.38;6116929;23;20332;-86
2023/11/30 11:10:38;;;;;;;24.77;13.18;;;;;;;1.30;100.00;99538.28;6122681;23;20022;-83
2023/11/30 11:13:06;;;;;;;22.13;11.63;;;;;;;1.14;100.00;99539.78;6120693;23;20057;-85
2023/11/30 11:15:34;;;;;;;25.00;12.68;;;;;;;1.04;100.00;99539.69;6119965;23;20452;-85
2023/11/30 11:18:03;;;;;;;24.10;13.55;;;;;;;0.86;100.00;99537.75;6120251;23;20077;-84
2023/11/30 11:20:36;;;;;;;26.35;13.38;;;;;;;0.82;100.00;99536.81;6120398;23;20046;-85
2023/11/30 11:23:12;;;;;;;24.10;12.73;;;;;;;1.02;100.00;99538.78;6096990;23;20478;-84
2023/11/30 11:25:41;;;;;;;19.98;12.82;;;;;;;1.08;100.00;99538.88;6075456;23;20021;-83
2023/11/30 11:28:08;;;;;;;25.10;13.90;;;;;;;1.20;100.00;99523.56;6124708;23;20535;-85
2023/11/30 11:30:51;;;;;;;24.35;12.95;;;;;;;1.19;100.00;99526.09;6098328;23;20037;-85
2023/11/30 11:33:21;;;;;;;22.27;13.10;;;;;;;1.17;100.00;99520.91;6098482;23;20085;-86
2023/11/30 11:35:50;;;;;;;24.27;12.70;;;;;;;1.12;100.00;99525.16;6122934;23;20032;-84
2023/11/30 11:38:18;;;;;;;26.63;12.93;;;;;;;1.29;100.00;99522.75;6121454;23;20101;-85
2023/11/30 11:40:45;;;;;;;22.15;12.23;;;;;;;1.41;100.00;99528.06;6074891;23;20033;-84
2023/11/30 11:43:12;;;;;;;25.98;14.88;;;;;;;1.60;100.00;99528.22;6098460;23;20022;-84
2023/11/30 11:45:40;;;;;;;23.60;13.73;;;;;;;1.68;100.00;99528.31;6123440;23;20078;-85
2023/11/30 11:48:11;;;;;;;23.35;14.23;;;;;;;1.66;100.00;99515.41;6122180;23;20018;-86
2023/11/30 11:50:39;;;;;;;26.35;13.23;;;;;;;1.67;100.00;99522.28;6098523;23;20098;-83
2023/11/30 11:53:06;;;;;;;21.10;12.15;;;;;;;1.71;100.00;99523.16;6127405;23;20033;-85
2023/11/30 11:55:33;;;;;;;19.70;12.20;;;;;;;1.80;100.00;99525.84;6127051;23;20392;-83
2023/11/30 11:58:00;;;;;;;25.75;14.73;;;;;;;1.90;100.00;99525.03;6127937;23;20022;-84
2023/11/30 12:00:27;;;;;;;21.17;12.52;;;;;;;1.96;100.00;99526.81;6102172;23;20029;-84
2023/11/30 12:03:08;;;;;;;19.92;13.73;;;;;;;2.04;100.00;99532.91;6097922;23;20141;-85
2023/11/30 12:05:34;;;;;;;21.23;13.40;;;;;;;2.13;100.00;99526.94;6122082;23;20022;-84
2023/11/30 12:08:02;;;;;;;21.52;12.02;;;;;;;2.16;99.25;99524.38;6122605;23;20022;-83
2023/11/30 12:10:39;;;;;;;21.40;12.88;;;;;;;2.21;99.64;99527.84;6096932;23;20053;-83
2023/11/30 12:13:07;;;;;;;21.48;12.77;;;;;;;2.12;98.23;99517.47;6074277;23;20133;-83
2023/11/30 12:15:34;;;;;;;21.85;11.50;;;;;;;1.89;99.36;99522.44;6097099;23;20117;-84
2023/11/30 12:18:02;;;;;;;20.77;12.05;;;;;;;1.85;100.00;99523.28;6123348;23;20025;-84
2023/11/30 12:20:29;;;;;;;18.52;12.43;;;;;;;1.84;100.00;99524.13;6098433;23;20041;-84
2023/11/30 12:22:56;;;;;;;24.23;13.82;;;;;;;1.76;99.89;99519.78;6098247;23;20088;-84
2023/11/30 12:25:25;;;;;;;23.13;13.00;;;;;;;1.90;100.00;99527.63;6097632;23;20101;-86
2023/11/30 12:27:52;;;;;;;25.42;12.57;;;;;;;1.80;100.00;99531.00;6073246;23;20018;-86
2023/11/30 12:30:19;;;;;;;22.88;12.80;;;;;;;1.80;100.00;99524.13;6123846;23;20018;-86
2023/11/30 12:32:47;;;;;;;20.92;11.88;;;;;;;1.92;100.00;99525.06;6099171;23;20025;-84
2023/11/30 12:35:14;;;;;;;19.00;11.00;;;;;;;1.95;100.00;99530.25;6096583;23;20026;-85
2023/11/30 12:37:40;;;;;;;20.23;11.95;;;;;;;1.82;99.85;99524.13;6096634;23;20029;-86
2023/11/30 12:40:09;;;;;;;19.27;11.48;;;;;;;2.01;100.00;99529.41;6095606;23;20361;-85
2023/11/30 12:42:37;;;;;;;22.38;13.13;;;;;;;1.92;99.84;99533.66;6121728;23;20410;-86